Addis, LA

7:14 AM CST on December 10, 2016 (GMT -0600)
Addis Town Hall | | Change Station
Active Advisory: Freeze Warning

Elev 36 ft 30.36 °N, 91.26 °W | Updated 5 seconds ago

Clear
Clear
33.0 °F
Feels Like 33 °F
N
1.0
Wind Variable Wind from East

Today
High -- | Low -- °F
--% Chance of Precip.
Yesterday
High -- | Low -- °F
Precip. -- in
Pressure 30.54 in
Visibility 10.0 miles
Clouds Clear
Windchill 33 °F
Dew Point 24 °F
Humidity 69%
Rainfall 0.00 in
Snow Depth Not available.
6:51 AM 5:05 PM
Waxing Gibbous, 83% visible
METAR KBTR 101253Z 05005KT 10SM CLR M01/M04 A3054 RMK AO2 SLP342 T10111039
Pressure 30.54 in
Visibility 10.0 miles
Clouds Clear
Windchill 33 °F
Dew Point 24 °F
Humidity 69%
Rainfall 0.00 in
Snow Depth Not available.
6:51 AM 5:05 PM
Waxing Gibbous, 83% visible
METAR KBTR 101253Z 05005KT 10SM CLR M01/M04 A3054 RMK AO2 SLP342 T10111039

10-Day Weather Forecast

Almanac

Astronomy

Dec. 10, 2016 Rise Set
Actual Time
Civil Twilight
Nautical Twilight
Astronomical Twilight
Moon
Length of Visible Light
Length of Day
Tomorrow will be .
, % of the Moon is Illuminated

Today's Extremes

State Highs State Lows

Community

WunderPhotos

Upload Photos

1,956,540 photos uploaded!

WunderBlog® & News

Nearby

Air Quality

  Air Quality AQ Index Pollutant
Not available.

Snow Depth

Station Depth Elevation

Earthquake Activity

City Distance Mag. Time & Date
Minimum magnitude displayed is 2.5.

Coastal Water Temperatures

Place Temperature

Stations

Nearby Weather Stations

Station Location Temp. Windchill Dew Point Humidity Wind Precip. Elev Updated Type
                   

Watches & Warnings

Freeze Warning
Issued: 3:49 AM CST Dec. 10, 2016 – National Weather Service

... Freeze warning remains in effect until 8 am CST this morning...

* temperature... lows 25 to 31 degrees.

* Duration... temperatures will remain below freezing through 8 am
this morning.

* Impacts... this freeze may kill or damage tender vegetation.

Precautionary/preparedness actions...

A freeze warning means sub-freezing temperatures are imminent or
highly likely. These conditions will kill crops and other
sensitive vegetation.